createdAt,value
2019-03-26T00:01:48.075Z,4.37
2019-03-26T00:04:19.480Z,4.60
2019-03-26T00:06:50.912Z,4.30
2019-03-26T00:09:22.507Z,4.70
2019-03-26T00:11:53.931Z,4.93
2019-03-26T00:14:25.500Z,3.87
2019-03-26T00:16:56.944Z,3.83
2019-03-26T00:19:28.474Z,4.47
2019-03-26T00:21:59.915Z,4.03
2019-03-26T00:24:31.514Z,4.00
2019-03-26T00:27:03.281Z,4.33
2019-03-26T00:29:34.754Z,4.10
2019-03-26T00:32:06.209Z,4.60
2019-03-26T00:34:37.653Z,4.07
2019-03-26T00:37:09.621Z,4.60
2019-03-26T00:39:41.077Z,4.90
2019-03-26T00:42:12.801Z,4.30
2019-03-26T00:44:44.227Z,3.30
2019-03-26T00:47:15.678Z,4.00
2019-03-26T00:49:47.132Z,3.93
2019-03-26T00:52:18.571Z,4.27
2019-03-26T00:54:49.970Z,4.17
2019-03-26T00:57:21.661Z,3.87
2019-03-26T00:59:53.118Z,3.73
2019-03-26T01:02:24.830Z,4.30
2019-03-26T01:04:56.771Z,3.90
2019-03-26T01:07:28.501Z,3.85
2019-03-26T01:09:59.938Z,3.97
2019-03-26T01:12:31.619Z,3.83
2019-03-26T01:15:03.333Z,3.63
2019-03-26T01:17:34.820Z,3.93
2019-03-26T01:20:06.634Z,3.40
2019-03-26T01:22:38.256Z,3.83
2019-03-26T01:25:09.879Z,3.67
2019-03-26T01:27:41.644Z,3.37
2019-03-26T01:30:13.523Z,3.73
2019-03-26T01:32:44.953Z,4.23
2019-03-26T01:35:16.666Z,3.70
2019-03-26T01:37:48.128Z,3.77
2019-03-26T01:40:19.755Z,3.93
2019-03-26T01:42:51.249Z,3.60
2019-03-26T01:45:22.705Z,3.33
2019-03-26T01:47:54.138Z,3.23
2019-03-26T01:50:25.759Z,3.90
2019-03-26T01:52:57.251Z,3.63
2019-03-26T01:55:29.238Z,3.97
2019-03-26T01:58:00.716Z,3.60
2019-03-26T02:00:32.184Z,5.00
2019-03-26T02:03:04.004Z,3.72
2019-03-26T02:05:35.738Z,3.65
2019-03-26T02:08:07.201Z,3.43
2019-03-26T02:10:38.741Z,3.87
2019-03-26T02:13:10.207Z,3.47
2019-03-26T02:15:41.726Z,3.73
2019-03-26T02:18:13.450Z,3.87
2019-03-26T02:20:44.931Z,4.23
2019-03-26T02:23:16.890Z,4.87
2019-03-26T02:25:48.329Z,4.20
2019-03-26T02:28:19.789Z,4.30
2019-03-26T02:30:51.193Z,4.10
2019-03-26T02:33:22.806Z,3.73
2019-03-26T02:35:54.263Z,4.60
2019-03-26T02:38:25.931Z,4.33
2019-03-26T02:40:57.342Z,4.57
2019-03-26T02:43:28.886Z,4.63
2019-03-26T02:46:00.433Z,4.33
2019-03-26T02:48:31.890Z,4.57
2019-03-26T02:51:03.954Z,4.70
2019-03-26T02:53:35.366Z,4.87
2019-03-26T02:56:07.125Z,4.42
2019-03-26T02:58:38.836Z,4.20
2019-03-26T03:01:11.274Z,5.05
2019-03-26T03:03:42.873Z,4.07
2019-03-26T03:06:14.417Z,4.58
2019-03-26T03:08:45.948Z,4.57
2019-03-26T03:11:17.404Z,4.37
2019-03-26T03:13:48.821Z,4.60
2019-03-26T03:16:20.262Z,4.90
2019-03-26T03:18:51.909Z,5.17
2019-03-26T03:21:23.380Z,4.57
2019-03-26T03:23:55.071Z,4.60
2019-03-26T03:26:26.479Z,4.07
2019-03-26T03:28:57.935Z,4.80
2019-03-26T03:31:29.365Z,4.10
2019-03-26T03:34:01.075Z,4.90
2019-03-26T03:36:32.803Z,4.28
2019-03-26T03:39:05.654Z,4.20
2019-03-26T03:41:37.155Z,3.97
2019-03-26T03:44:08.879Z,4.25
2019-03-26T03:46:41.424Z,3.90
2019-03-26T03:49:13.377Z,4.13
2019-03-26T03:51:47.621Z,4.63
2019-03-26T03:54:19.406Z,3.87
2019-03-26T03:56:54.182Z,4.43
2019-03-26T03:59:25.876Z,4.10
2019-03-26T04:01:57.458Z,4.80
2019-03-26T04:04:29.083Z,4.30
2019-03-26T04:07:00.496Z,4.40
2019-03-26T04:09:32.079Z,4.27
2019-03-26T04:12:03.906Z,4.97
2019-03-26T04:14:35.285Z,4.87
2019-03-26T04:17:07.083Z,4.57
2019-03-26T04:19:38.506Z,4.20
2019-03-26T04:22:10.266Z,4.75
2019-03-26T04:24:42.051Z,4.60
2019-03-26T04:27:13.529Z,4.53
2019-03-26T04:29:45.127Z,4.70
2019-03-26T04:32:16.599Z,5.30
2019-03-26T04:34:48.041Z,5.67
2019-03-26T04:37:19.492Z,5.23
2019-03-26T04:39:50.995Z,5.33
2019-03-26T04:42:22.590Z,5.17
2019-03-26T04:44:54.129Z,4.67
2019-03-26T04:47:25.684Z,4.53
2019-03-26T04:49:57.097Z,5.27
2019-03-26T04:52:28.552Z,4.80
2019-03-26T04:55:00.566Z,4.83
2019-03-26T04:57:32.048Z,5.20
2019-03-26T05:00:03.735Z,5.50
2019-03-26T05:02:35.181Z,6.00
2019-03-26T05:05:06.819Z,5.93
2019-03-26T05:07:38.290Z,5.00
2019-03-26T05:10:10.327Z,5.42
2019-03-26T05:12:41.840Z,5.40
2019-03-26T05:15:14.317Z,5.70
2019-03-26T05:17:45.762Z,6.23
2019-03-26T05:20:17.493Z,5.57
2019-03-26T05:22:49.140Z,5.83
2019-03-26T05:25:20.624Z,5.80
2019-03-26T05:27:52.183Z,6.20
2019-03-26T05:30:23.612Z,6.37
2019-03-26T05:32:55.322Z,5.33
2019-03-26T05:35:26.871Z,6.30
2019-03-26T05:37:58.278Z,6.67
2019-03-26T05:40:30.835Z,6.50
2019-03-26T05:43:02.395Z,7.03
2019-03-26T05:45:34.127Z,6.77
2019-03-26T05:48:05.877Z,6.57
2019-03-26T05:50:37.646Z,6.57
2019-03-26T05:53:09.231Z,7.33
2019-03-26T05:55:40.680Z,7.33
2019-03-26T05:58:12.198Z,6.95
2019-03-26T06:00:43.840Z,6.70
2019-03-26T06:03:15.477Z,7.15
2019-03-26T06:05:46.953Z,6.93
2019-03-26T06:08:18.421Z,7.40
2019-03-26T06:10:50.249Z,8.28
2019-03-26T06:13:21.727Z,7.33
2019-03-26T06:15:53.197Z,8.17
2019-03-26T06:18:24.676Z,8.27
2019-03-26T06:20:56.349Z,7.97
2019-03-26T06:23:27.791Z,7.87
2019-03-26T06:26:00.670Z,7.50
2019-03-26T06:28:32.312Z,8.30
2019-03-26T06:31:03.932Z,7.63
2019-03-26T06:33:35.394Z,8.60
2019-03-26T06:36:07.104Z,7.85
2019-03-26T06:38:38.659Z,8.37
2019-03-26T06:41:10.335Z,9.30
2019-03-26T06:43:41.772Z,8.80
2019-03-26T06:46:13.521Z,10.30
2019-03-26T06:48:45.336Z,7.67
2019-03-26T06:51:16.801Z,8.23
2019-03-26T06:53:48.494Z,7.53
2019-03-26T06:56:19.958Z,9.17
2019-03-26T06:58:51.414Z,7.97
2019-03-26T07:01:23.016Z,8.50
2019-03-26T07:03:54.439Z,7.97
2019-03-26T07:06:25.952Z,7.57
2019-03-26T07:08:57.513Z,7.50
2019-03-26T07:11:29.210Z,7.73
2019-03-26T07:14:00.893Z,8.87
2019-03-26T07:16:32.333Z,8.70
2019-03-26T07:19:04.071Z,7.63
2019-03-26T07:21:35.503Z,8.93
2019-03-26T07:24:08.659Z,7.80
2019-03-26T07:26:40.352Z,8.10
2019-03-26T07:29:11.835Z,7.53
2019-03-26T07:31:43.347Z,7.30
2019-03-26T07:34:14.801Z,7.92
2019-03-26T07:36:46.415Z,7.50
2019-03-26T07:39:18.117Z,7.97
2019-03-26T07:41:49.635Z,6.80
2019-03-26T07:44:21.317Z,7.67
2019-03-26T07:46:52.760Z,7.37
2019-03-26T07:49:24.449Z,6.67
2019-03-26T07:51:55.936Z,6.37
2019-03-26T07:54:27.407Z,6.47
2019-03-26T07:57:00.474Z,6.47
2019-03-26T07:59:31.908Z,6.47
2019-03-26T08:02:03.579Z,6.53
2019-03-26T08:04:35.291Z,6.80
2019-03-26T08:07:06.995Z,6.12
2019-03-26T08:09:38.401Z,5.90
2019-03-26T08:12:10.110Z,5.47
2019-03-26T08:14:41.590Z,5.40
2019-03-26T08:17:12.973Z,5.23
2019-03-26T08:19:44.404Z,5.40
2019-03-26T08:22:16.076Z,5.37
2019-03-26T08:24:47.563Z,5.10
2019-03-26T08:27:19.009Z,5.95
2019-03-26T08:29:50.546Z,5.73
2019-03-26T08:32:22.026Z,5.30
2019-03-26T08:34:53.496Z,4.63
2019-03-26T08:37:24.946Z,5.53
2019-03-26T08:39:56.617Z,6.60
2019-03-26T08:42:28.071Z,5.00
2019-03-26T08:45:00.870Z,4.83
2019-03-26T08:47:32.631Z,5.20
2019-03-26T08:50:04.178Z,5.07
2019-03-26T08:52:35.712Z,5.83
2019-03-26T08:55:08.743Z,5.55
2019-03-26T08:57:40.464Z,4.85
2019-03-26T09:00:14.385Z,4.87
2019-03-26T09:02:45.837Z,5.10
2019-03-26T09:05:17.659Z,4.83
2019-03-26T09:07:49.054Z,4.77
2019-03-26T09:10:20.796Z,4.77
2019-03-26T09:12:52.566Z,4.73
2019-03-26T09:15:23.954Z,4.67
2019-03-26T09:17:55.726Z,5.17
2019-03-26T09:20:27.173Z,4.70
2019-03-26T09:22:58.885Z,5.50
2019-03-26T09:25:30.618Z,5.50
2019-03-26T09:28:02.322Z,4.40
2019-03-26T09:30:33.809Z,4.73
2019-03-26T09:33:05.330Z,4.40
2019-03-26T09:35:36.772Z,4.67
2019-03-26T09:38:08.225Z,4.30
2019-03-26T09:40:39.624Z,4.67
2019-03-26T09:43:11.086Z,4.42
2019-03-26T09:45:42.690Z,4.50
2019-03-26T09:48:14.900Z,4.47
2019-03-26T09:50:46.627Z,3.72
2019-03-26T09:53:18.090Z,3.77
2019-03-26T09:55:49.650Z,4.60
2019-03-26T09:58:21.128Z,3.77
2019-03-26T10:00:52.641Z,3.20
2019-03-26T10:03:24.150Z,3.37
2019-03-26T10:05:55.839Z,4.00
2019-03-26T10:08:27.307Z,3.50
2019-03-26T10:10:58.766Z,3.10
2019-03-26T10:13:30.167Z,3.00
2019-03-26T10:16:01.858Z,3.00
2019-03-26T10:18:33.302Z,2.70
2019-03-26T10:21:04.953Z,2.70
2019-03-26T10:23:36.575Z,2.47
2019-03-26T10:40:53.833Z,1.67
2019-03-26T10:43:25.343Z,1.80
2019-03-26T10:45:56.888Z,2.17
2019-03-26T10:48:31.641Z,2.20
2019-03-26T10:51:01.889Z,2.37
2019-03-26T10:53:33.307Z,1.63
2019-03-26T10:56:05.001Z,1.82
2019-03-26T10:58:36.805Z,1.67
2019-03-26T11:01:08.554Z,2.23
2019-03-26T11:03:39.975Z,1.70
2019-03-26T11:06:11.430Z,2.00
2019-03-26T11:08:45.203Z,1.80
2019-03-26T11:11:16.267Z,1.73
2019-03-26T11:13:47.759Z,2.00
2019-03-26T11:16:19.184Z,2.98
2019-03-26T11:18:50.660Z,2.60
2019-03-26T11:21:22.082Z,2.60
2019-03-26T11:23:53.818Z,2.80
2019-03-26T11:26:25.255Z,2.40
2019-03-26T11:28:56.783Z,2.60
2019-03-26T11:31:30.048Z,2.53
2019-03-26T11:34:01.492Z,2.30
2019-03-26T11:36:33.004Z,2.10
2019-03-26T11:39:05.472Z,2.73
2019-03-26T11:41:36.947Z,2.43
2019-03-26T11:44:08.935Z,2.45
2019-03-26T11:46:40.386Z,2.60
2019-03-26T11:49:12.213Z,2.53
2019-03-26T11:51:43.932Z,2.58
2019-03-26T11:54:15.441Z,2.03
2019-03-26T11:56:46.967Z,2.33
2019-03-26T11:59:18.428Z,2.17
2019-03-26T12:01:52.436Z,2.47
2019-03-26T12:04:23.068Z,2.00
2019-03-26T12:06:54.575Z,2.30
2019-03-26T12:09:26.086Z,2.03
2019-03-26T12:11:57.470Z,2.20
2019-03-26T12:14:28.903Z,2.87
2019-03-26T12:17:01.240Z,2.00
2019-03-26T12:19:32.901Z,2.47
2019-03-26T12:22:04.570Z,1.90
2019-03-26T12:24:36.019Z,1.83
2019-03-26T12:27:07.510Z,2.20
2019-03-26T12:29:38.941Z,2.13
2019-03-26T12:32:10.655Z,2.60
2019-03-26T12:34:42.084Z,2.30
2019-03-26T12:37:13.544Z,2.30
2019-03-26T12:39:58.415Z,2.07
2019-03-26T12:42:18.520Z,2.47
2019-03-26T12:44:49.964Z,2.03
2019-03-26T12:47:21.373Z,2.00
2019-03-26T12:49:53.050Z,2.50
2019-03-26T12:52:24.519Z,2.37
2019-03-26T12:54:56.213Z,2.33
2019-03-26T12:57:27.618Z,2.20
2019-03-26T12:59:59.109Z,2.40
2019-03-26T13:02:30.612Z,2.80
2019-03-26T13:05:02.298Z,2.87
2019-03-26T13:07:34.028Z,2.60
2019-03-26T13:10:13.552Z,2.65
2019-03-26T13:12:39.445Z,2.40
2019-03-26T13:15:11.248Z,2.53
2019-03-26T13:17:42.700Z,2.37
2019-03-26T13:20:14.657Z,1.97
2019-03-26T13:22:46.067Z,2.00
2019-03-26T13:25:17.508Z,1.55
2019-03-26T13:27:49.215Z,1.75
2019-03-26T13:30:21.593Z,2.02
2019-03-26T13:32:53.105Z,1.63
2019-03-26T13:35:24.536Z,1.77
2019-03-26T13:37:56.144Z,1.50
2019-03-26T13:40:27.980Z,1.80
2019-03-26T13:43:00.759Z,1.67
2019-03-26T13:45:32.997Z,1.70
2019-03-26T13:48:04.641Z,1.67
2019-03-26T13:50:36.103Z,1.60
2019-03-26T13:53:07.585Z,1.52
2019-03-26T13:55:39.170Z,1.80
2019-03-26T13:58:10.610Z,1.62
2019-03-26T14:00:43.075Z,2.00
2019-03-26T14:03:14.700Z,1.67
2019-03-26T14:05:46.174Z,1.97
2019-03-26T14:08:17.586Z,1.40
2019-03-26T14:10:49.176Z,1.90
2019-03-26T14:13:20.862Z,2.00
2019-03-26T14:15:52.358Z,1.90
2019-03-26T14:18:23.815Z,1.83
2019-03-26T14:20:55.274Z,1.90
2019-03-26T14:23:26.727Z,2.00
2019-03-26T14:25:58.248Z,1.87
2019-03-26T14:28:29.697Z,2.30
2019-03-26T14:31:01.612Z,2.03
2019-03-26T14:33:33.095Z,2.60
2019-03-26T14:36:04.522Z,2.63
2019-03-26T14:38:36.206Z,2.23
2019-03-26T14:41:07.599Z,2.45
2019-03-26T14:43:39.248Z,3.00
2019-03-26T14:46:10.983Z,2.40
2019-03-26T14:48:42.394Z,2.37
2019-03-26T14:51:13.907Z,2.80
2019-03-26T14:53:45.452Z,2.60
2019-03-26T14:56:17.466Z,3.33
2019-03-26T14:58:49.287Z,3.00
2019-03-26T15:01:20.991Z,3.17
2019-03-26T15:03:52.373Z,3.40
2019-03-26T15:06:24.075Z,4.23
2019-03-26T15:08:55.526Z,3.83
2019-03-26T15:11:27.231Z,2.73
2019-03-26T15:13:58.675Z,3.30
2019-03-26T15:16:30.343Z,4.10
2019-03-26T15:19:01.786Z,3.53
2019-03-26T15:21:33.514Z,3.40
2019-03-26T15:24:05.026Z,3.63
2019-03-26T15:26:36.506Z,3.50
2019-03-26T15:29:08.022Z,3.25
2019-03-26T15:31:39.526Z,3.20
2019-03-26T15:34:11.582Z,3.40
2019-03-26T15:36:43.049Z,3.40
2019-03-26T15:39:14.489Z,2.73
2019-03-26T15:41:46.052Z,3.47
2019-03-26T15:44:17.762Z,3.50
2019-03-26T15:46:49.372Z,3.47
2019-03-26T15:49:21.514Z,3.33
2019-03-26T15:51:52.975Z,3.40
2019-03-26T15:54:24.545Z,5.20
2019-03-26T15:56:55.989Z,4.83
2019-03-26T15:59:27.455Z,3.27
2019-03-26T16:01:58.940Z,4.13
2019-03-26T16:04:30.560Z,4.70
2019-03-26T16:07:02.022Z,3.70
2019-03-26T16:09:33.522Z,4.53
2019-03-26T16:12:04.938Z,5.00
2019-03-26T16:14:36.716Z,5.10
2019-03-26T16:17:08.430Z,5.07
2019-03-26T16:19:39.843Z,5.07
2019-03-26T16:22:11.910Z,4.95
2019-03-26T16:24:43.681Z,5.20
2019-03-26T16:27:15.196Z,6.70
2019-03-26T16:29:46.672Z,6.67
2019-03-26T16:32:18.088Z,5.23
2019-03-26T16:34:49.533Z,5.00
2019-03-26T16:37:21.559Z,6.70
2019-03-26T16:39:53.014Z,6.83
2019-03-26T16:42:24.682Z,6.40
2019-03-26T16:44:56.199Z,7.17
2019-03-26T16:47:27.706Z,7.33
2019-03-26T16:49:59.210Z,7.50
2019-03-26T16:52:30.712Z,6.70
2019-03-26T16:55:02.169Z,9.80
2019-03-26T16:57:33.681Z,6.43
2019-03-26T17:00:05.354Z,6.27
2019-03-26T17:02:36.823Z,7.20
2019-03-26T17:05:09.909Z,7.97
2019-03-26T17:07:42.374Z,9.10
2019-03-26T17:10:14.209Z,8.20
2019-03-26T17:12:46.073Z,7.07
2019-03-26T17:15:17.836Z,7.17
2019-03-26T17:17:49.321Z,7.30
2019-03-26T17:20:23.891Z,6.93
2019-03-26T17:22:54.676Z,6.40
2019-03-26T17:25:31.158Z,7.53
2019-03-26T17:28:03.165Z,6.67
2019-03-26T17:30:35.823Z,6.28
2019-03-26T17:33:07.281Z,6.60
2019-03-26T17:35:40.213Z,6.37
2019-03-26T17:38:12.034Z,6.45
2019-03-26T17:40:43.748Z,6.07
2019-03-26T17:43:15.437Z,6.40
2019-03-26T17:45:47.083Z,6.43
2019-03-26T17:48:18.844Z,6.10
2019-03-26T17:50:50.335Z,6.70
2019-03-26T17:53:22.009Z,6.03
2019-03-26T17:55:53.862Z,6.17
2019-03-26T17:58:25.264Z,6.17
2019-03-26T18:00:57.025Z,6.53
2019-03-26T18:03:28.646Z,6.23
2019-03-26T18:06:01.380Z,5.97
2019-03-26T18:08:32.851Z,5.43
2019-03-26T18:11:04.496Z,5.57
2019-03-26T18:13:35.977Z,5.93
2019-03-26T18:16:08.205Z,6.53
2019-03-26T18:18:40.077Z,5.50
2019-03-26T18:21:13.128Z,5.85
2019-03-26T18:23:44.813Z,5.63
2019-03-26T18:26:16.358Z,6.12
2019-03-26T18:28:47.818Z,6.33
2019-03-26T18:31:19.300Z,5.40
2019-03-26T18:33:51.082Z,5.70
2019-03-26T18:36:22.582Z,5.37
2019-03-26T18:38:54.070Z,5.97
2019-03-26T18:41:25.778Z,6.37
2019-03-26T18:43:57.312Z,5.97
2019-03-26T18:46:28.839Z,6.30
2019-03-26T18:49:01.599Z,5.93
2019-03-26T18:51:33.101Z,6.17
2019-03-26T18:54:05.046Z,5.93
2019-03-26T18:56:37.008Z,6.40
2019-03-26T18:59:08.918Z,6.07
2019-03-26T19:01:40.395Z,5.87
2019-03-26T19:04:12.230Z,5.17
2019-03-26T19:06:44.126Z,5.63
2019-03-26T19:09:16.242Z,5.60
2019-03-26T19:11:47.954Z,6.17
2019-03-26T19:14:20.018Z,5.65
2019-03-26T19:16:51.837Z,6.08
2019-03-26T19:19:23.335Z,6.00
2019-03-26T19:21:55.007Z,6.53
2019-03-26T19:24:26.601Z,6.10
2019-03-26T19:26:58.226Z,5.80
2019-03-26T19:29:29.977Z,5.83
2019-03-26T19:32:02.282Z,6.17
2019-03-26T19:34:33.933Z,5.63
2019-03-26T19:37:06.803Z,5.43
2019-03-26T19:39:38.307Z,5.80
2019-03-26T19:42:10.057Z,4.93
2019-03-26T19:44:42.057Z,5.47
2019-03-26T19:47:14.255Z,5.80
2019-03-26T19:49:46.015Z,5.50
2019-03-26T19:52:18.799Z,6.35
2019-03-26T19:54:50.903Z,5.60
2019-03-26T19:57:22.573Z,5.80
2019-03-26T19:59:54.077Z,5.93
2019-03-26T20:02:26.026Z,6.43
2019-03-26T20:04:57.569Z,6.33
2019-03-26T20:07:29.084Z,7.10
2019-03-26T20:10:02.516Z,6.88
2019-03-26T20:12:34.155Z,6.10
2019-03-26T20:15:06.533Z,6.97
2019-03-26T20:17:38.074Z,7.17
2019-03-26T20:20:10.972Z,7.25
2019-03-26T20:22:42.459Z,5.97
2019-03-26T20:25:14.692Z,6.75
2019-03-26T20:27:46.146Z,6.27
2019-03-26T20:30:19.808Z,7.27
2019-03-26T20:32:51.284Z,6.57
2019-03-26T20:35:23.105Z,5.90
2019-03-26T20:37:54.617Z,5.73
2019-03-26T20:40:26.082Z,6.13
2019-03-26T20:42:57.602Z,6.20
2019-03-26T20:45:29.174Z,6.77
2019-03-26T20:48:01.911Z,6.80
2019-03-26T20:50:33.385Z,6.70
2019-03-26T20:53:05.297Z,6.33
2019-03-26T20:55:37.581Z,6.07
2019-03-26T20:58:09.465Z,6.23
2019-03-26T21:00:42.760Z,7.07
2019-03-26T21:03:14.276Z,6.10
2019-03-26T21:05:46.168Z,7.27
2019-03-26T21:08:18.276Z,7.37
2019-03-26T21:10:50.068Z,6.87
2019-03-26T21:13:21.545Z,6.90
2019-03-26T21:15:57.349Z,6.73
2019-03-26T21:18:26.516Z,7.27
2019-03-26T21:20:58.067Z,7.67
2019-03-26T21:23:29.542Z,6.43
2019-03-26T21:26:02.892Z,6.80
2019-03-26T21:28:34.337Z,6.87
2019-03-26T21:31:06.439Z,6.75
2019-03-26T21:33:38.278Z,6.57
2019-03-26T21:36:09.764Z,7.30
2019-03-26T21:38:41.361Z,7.97
2019-03-26T21:41:13.203Z,7.60
2019-03-26T21:43:44.678Z,7.33
2019-03-26T21:46:16.487Z,7.83
2019-03-26T21:48:48.224Z,8.38
2019-03-26T21:51:19.729Z,9.07
2019-03-26T21:53:51.172Z,8.20
2019-03-26T21:56:22.681Z,8.47
2019-03-26T21:58:54.155Z,8.23
2019-03-26T22:01:25.689Z,8.27
2019-03-26T22:03:57.324Z,7.07
2019-03-26T22:06:28.779Z,8.20
2019-03-26T22:09:00.324Z,7.13
2019-03-26T22:11:31.936Z,7.60
2019-03-26T22:14:16.991Z,7.40
2019-03-26T22:16:38.736Z,7.23
2019-03-26T22:19:10.448Z,6.70
2019-03-26T22:21:42.234Z,6.10
2019-03-26T22:24:16.911Z,7.20
2019-03-26T22:26:47.152Z,7.17
2019-03-26T22:29:18.617Z,6.83
2019-03-26T22:31:50.133Z,6.93
2019-03-26T22:34:21.645Z,6.93
2019-03-26T22:36:53.306Z,7.13
2019-03-26T22:39:24.775Z,7.07
2019-03-26T22:41:56.217Z,6.27
2019-03-26T22:44:31.698Z,7.37
2019-03-26T22:47:02.582Z,7.54
2019-03-26T22:49:34.210Z,7.00
2019-03-26T22:52:06.009Z,6.73
2019-03-26T22:54:37.426Z,6.53
2019-03-26T22:57:08.862Z,6.60
2019-03-26T22:59:40.321Z,7.17
2019-03-26T23:02:12.379Z,7.42
2019-03-26T23:04:43.853Z,6.80
2019-03-26T23:07:15.550Z,7.20
2019-03-26T23:09:47.314Z,7.37
2019-03-26T23:12:18.940Z,7.23
2019-03-26T23:14:51.249Z,6.60
2019-03-26T23:17:22.941Z,7.20
2019-03-26T23:19:54.399Z,6.97
2019-03-26T23:22:25.882Z,7.57
2019-03-26T23:24:57.353Z,8.00
2019-03-26T23:27:28.855Z,7.93
2019-03-26T23:30:00.373Z,7.57
2019-03-26T23:32:31.813Z,7.70
2019-03-26T23:35:03.282Z,7.93
2019-03-26T23:37:34.724Z,7.90
2019-03-26T23:40:07.374Z,7.40
2019-03-26T23:42:38.802Z,7.20
2019-03-26T23:45:10.572Z,7.67
2019-03-26T23:47:42.340Z,7.60
2019-03-26T23:50:14.943Z,8.00
2019-03-26T23:52:46.383Z,7.87
2019-03-26T23:55:18.157Z,8.50
2019-03-26T23:57:49.630Z,7.53
